Time;durP1;ratioP1;P1;durP2;ratioP2;P2;SDS_P1;SDS_P2;PMS_P1;PMS_P2;Temp;Humidity;BMP_temperature;BMP_pressure;BME280_temperature;BME280_humidity;BME280_pressure;Samples;Min_cycle;Max_cycle;Signal;HPM_P1;HPM_P2
2023/01/11 00:00:38;;;;;;;;;;;;;;;5.28;100.00;100474.69;4949650;29;19910;-72
2023/01/11 00:03:03;;;;;;;;;;;;;;;5.28;100.00;100469.31;4951120;28;19914;-73
2023/01/11 00:05:29;;;;;;;;;;;;;;;5.28;100.00;100455.91;4943739;28;19914;-73
2023/01/11 00:07:54;;;;;;;;;;;;;;;5.27;100.00;100451.53;4974440;28;19910;-72
2023/01/11 00:10:20;;;;;;;;;;;;;;;5.42;100.00;100460.94;4942644;28;20368;-73
2023/01/11 00:12:45;;;;;;;;;;;;;;;5.43;100.00;100463.47;4946317;29;20369;-73
2023/01/11 00:15:11;;;;;;;;;;;;;;;5.42;100.00;100452.88;4949013;28;19924;-73
2023/01/11 00:17:37;;;;;;;;;;;;;;;5.39;100.00;100445.09;4957373;28;20387;-73
2023/01/11 00:20:02;;;;;;;;;;;;;;;5.50;100.00;100447.69;4958228;28;19914;-73
2023/01/11 00:22:27;;;;;;;;;;;;;;;5.52;100.00;100434.94;4957560;28;20373;-73
2023/01/11 00:24:53;;;;;;;;;;;;;;;5.48;100.00;100433.53;4949713;28;19914;-73
2023/01/11 00:27:18;;;;;;;;;;;;;;;5.51;100.00;100438.63;4954365;29;20278;-72
2023/01/11 00:29:43;;;;;;;;;;;;;;;5.54;100.00;100416.91;4962611;28;19922;-72
2023/01/11 00:32:09;;;;;;;;;;;;;;;5.51;100.00;100417.16;4952230;28;19917;-73
2023/01/11 00:34:34;;;;;;;;;;;;;;;5.58;100.00;100434.41;4952377;28;19917;-72
2023/01/11 00:36:59;;;;;;;;;;;;;;;5.69;100.00;100437.00;4956152;28;20004;-73
2023/01/11 00:39:25;;;;;;;;;;;;;;;5.59;100.00;100425.38;4950600;28;19925;-72
2023/01/11 00:50:02;;;;;;;;;;;;;;;5.68;100.00;100381.59;4966120;28;19914;-72
2023/01/11 00:52:27;;;;;;;;;;;;;;;5.62;100.00;100376.75;4952459;29;19929;-73
2023/01/11 00:54:53;;;;;;;;;;;;;;;5.61;100.00;100388.50;4943284;28;19914;-73
2023/01/11 00:57:18;;;;;;;;;;;;;;;5.64;100.00;100374.78;4953101;29;19910;-72
2023/01/11 00:59:43;;;;;;;;;;;;;;;5.56;100.00;100361.22;4952749;28;19910;-73
2023/01/11 01:02:09;;;;;;;;;;;;;;;5.52;100.00;100365.13;4946889;28;19910;-72
2023/01/11 01:04:35;;;;;;;;;;;;;;;5.52;100.00;100359.78;4960729;28;19910;-72
2023/01/11 01:07:00;;;;;;;;;;;;;;;5.58;100.00;100359.22;4948117;28;19969;-72
2023/01/11 01:09:25;;;;;;;;;;;;;;;5.65;100.00;100360.34;4944982;29;19916;-72
2023/01/11 01:11:50;;;;;;;;;;;;;;;5.68;100.00;100343.97;4945121;28;19950;-70
2023/01/11 01:14:25;;;;;;;;;;;;;;;5.70;100.00;100352.75;4930051;29;19918;-72
2023/01/11 01:16:51;;;;;;;;;;;;;;;5.69;100.00;100360.94;4962691;28;19914;-71
2023/01/11 01:19:17;;;;;;;;;;;;;;;5.66;100.00;100342.41;4941471;28;19914;-72
2023/01/11 01:21:42;;;;;;;;;;;;;;;5.67;100.00;100346.78;4986137;23;19901;-78
2023/01/11 01:24:07;;;;;;;;;;;;;;;5.58;100.00;100340.44;4990929;28;19918;-77
2023/01/11 01:26:33;;;;;;;;;;;;;;;5.62;100.00;100333.78;4968049;28;19924;-76
2023/01/11 01:28:58;;;;;;;;;;;;;;;5.59;100.00;100334.06;4957605;28;19910;-75
2023/01/11 01:31:23;;;;;;;;;;;;;;;5.70;100.00;100341.16;4955817;28;19933;-75
2023/01/11 01:33:49;;;;;;;;;;;;;;;5.65;100.00;100328.13;4960114;28;19917;-75
2023/01/11 01:36:14;;;;;;;;;;;;;;;5.66;100.00;100324.44;4970760;28;19918;-75
2023/01/11 01:38:39;;;;;;;;;;;;;;;5.73;100.00;100319.38;4980213;28;19945;-73
2023/01/11 01:41:04;;;;;;;;;;;;;;;5.76;100.00;100326.31;4960205;28;19921;-72
2023/01/11 01:43:45;;;;;;;;;;;;;;;5.75;100.00;100319.25;4974489;28;19925;-73
2023/01/11 01:46:10;;;;;;;;;;;;;;;5.67;100.00;100307.38;4991951;28;19960;-72
2023/01/11 01:48:38;;;;;;;;;;;;;;;5.76;100.00;100307.50;4974039;28;19914;-75
2023/01/11 01:51:04;;;;;;;;;;;;;;;5.85;100.00;100312.03;4982586;28;19910;-74
2023/01/11 01:53:40;;;;;;;;;;;;;;;5.86;100.00;100300.28;4974967;28;19921;-75
2023/01/11 01:56:09;;;;;;;;;;;;;;;5.81;100.00;100297.19;4970793;28;19917;-75
2023/01/11 01:58:36;;;;;;;;;;;;;;;5.79;100.00;100291.09;4976873;28;19918;-74
2023/01/11 02:01:45;;;;;;;;;;;;;;;5.87;100.00;100283.19;4989133;28;20009;-74
2023/01/11 02:03:48;;;;;;;;;;;;;;;5.89;100.00;100286.59;4984576;28;19943;-74
2023/01/11 02:06:13;;;;;;;;;;;;;;;5.93;100.00;100282.63;4981999;28;19968;-74
2023/01/11 02:08:42;;;;;;;;;;;;;;;5.89;100.00;100281.22;4982309;28;20384;-73
2023/01/11 02:11:28;;;;;;;;;;;;;;;5.95;100.00;100280.69;4978374;28;19913;-73
2023/01/11 02:13:55;;;;;;;;;;;;;;;6.04;100.00;100285.19;4991371;28;19917;-73
2023/01/11 02:16:20;;;;;;;;;;;;;;;5.97;100.00;100278.69;4982017;28;19914;-73
2023/01/11 02:18:45;;;;;;;;;;;;;;;6.01;100.00;100258.59;4974417;28;19920;-75
2023/01/11 02:21:19;;;;;;;;;;;;;;;5.98;100.00;100258.88;4974265;28;19918;-75
2023/01/11 02:23:45;;;;;;;;;;;;;;;6.00;100.00;100262.28;4967152;28;19913;-74
2023/01/11 02:26:29;;;;;;;;;;;;;;;6.06;100.00;100256.31;4981395;28;19925;-75
2023/01/11 02:28:54;;;;;;;;;;;;;;;6.02;100.00;100246.88;4982192;28;19910;-74
2023/01/11 02:31:22;;;;;;;;;;;;;;;6.06;100.00;100250.94;4972419;28;19959;-74
2023/01/11 02:34:03;;;;;;;;;;;;;;;6.06;100.00;100237.50;4977858;28;19909;-74
2023/01/11 02:36:36;;;;;;;;;;;;;;;6.14;100.00;100253.78;4963821;28;19925;-74
2023/01/11 02:39:11;;;;;;;;;;;;;;;6.21;100.00;100238.75;4969206;28;20004;-73
2023/01/11 02:47:17;;;;;;;;;;;;;;;6.28;100.00;100227.41;4990750;28;19920;-73
2023/01/11 02:49:57;;;;;;;;;;;;;;;6.29;100.00;100212.97;4991021;28;19913;-73
2023/01/11 02:52:33;;;;;;;;;;;;;;;6.48;100.00;100221.81;4961447;28;20323;-72
2023/01/11 02:54:59;;;;;;;;;;;;;;;6.29;100.00;100212.97;4978761;28;19920;-73
2023/01/11 02:57:26;;;;;;;;;;;;;;;6.35;100.00;100217.78;4990736;28;20004;-72
2023/01/11 02:59:53;;;;;;;;;;;;;;;6.47;100.00;100227.34;4973357;28;19916;-73
2023/01/11 03:02:19;;;;;;;;;;;;;;;6.49;100.00;100219.97;4981255;28;19917;-75
2023/01/11 03:04:44;;;;;;;;;;;;;;;6.46;100.00;100222.97;4973696;28;19909;-75
2023/01/11 03:07:18;;;;;;;;;;;;;;;6.53;100.00;100216.00;4973306;28;20365;-75
2023/01/11 03:09:50;;;;;;;;;;;;;;;6.57;100.00;100212.00;4967533;28;20283;-75
2023/01/11 03:15:28;;;;;;;;;;;;;;;6.69;100.00;100226.97;4999615;28;19925;-76
2023/01/11 03:18:08;;;;;;;;;;;;;;;6.71;100.00;100219.56;4970393;28;19913;-76
2023/01/11 03:20:39;;;;;;;;;;;;;;;6.80;100.00;100218.69;4981436;28;19913;-77
2023/01/11 03:23:31;;;;;;;;;;;;;;;6.88;100.00;100230.53;4979979;28;19913;-77
2023/01/11 03:26:15;;;;;;;;;;;;;;;6.89;100.00;100210.72;4973233;28;19910;-77
2023/01/11 03:28:40;;;;;;;;;;;;;;;6.93;100.00;100212.97;4973541;28;19917;-77
2023/01/11 03:31:14;;;;;;;;;;;;;;;6.99;100.00;100206.13;4972318;28;19910;-77
2023/01/11 03:33:42;;;;;;;;;;;;;;;6.98;100.00;100215.19;4990796;28;20012;-77
2023/01/11 03:36:18;;;;;;;;;;;;;;;7.00;100.00;100191.66;4980175;28;19916;-77
2023/01/11 03:38:46;;;;;;;;;;;;;;;7.02;100.00;100208.50;4973151;28;19914;-76
2023/01/11 03:41:15;;;;;;;;;;;;;;;6.98;100.00;100209.81;4977426;28;20448;-77
2023/01/11 03:43:43;;;;;;;;;;;;;;;7.07;100.00;100222.34;4967009;28;19913;-76
2023/01/11 03:46:11;;;;;;;;;;;;;;;7.04;100.00;100203.81;4979748;28;19915;-76
2023/01/11 03:48:56;;;;;;;;;;;;;;;7.02;100.00;100197.72;4981397;28;19909;-75
2023/01/11 03:51:26;;;;;;;;;;;;;;;6.99;100.00;100184.59;4970594;28;19917;-75
2023/01/11 03:53:53;;;;;;;;;;;;;;;7.03;100.00;100185.97;4973479;28;19932;-74
2023/01/11 03:56:22;;;;;;;;;;;;;;;7.05;100.00;100198.28;4989922;28;19965;-74
2023/01/11 03:58:47;;;;;;;;;;;;;;;6.98;100.00;100188.28;4977089;28;20397;-74
2023/01/11 04:01:13;;;;;;;;;;;;;;;6.97;100.00;100181.19;4973455;28;19997;-74
2023/01/11 04:03:38;;;;;;;;;;;;;;;7.00;100.00;100175.53;4967500;28;20069;-74
2023/01/11 04:06:04;;;;;;;;;;;;;;;7.03;100.00;100175.19;4971188;28;19910;-75
2023/01/11 04:08:30;;;;;;;;;;;;;;;7.05;100.00;100167.84;4966017;28;19910;-74
2023/01/11 04:10:55;;;;;;;;;;;;;;;7.09;100.00;100174.59;4988234;28;19996;-74
2023/01/11 04:13:21;;;;;;;;;;;;;;;7.02;100.00;100165.44;4990371;28;19968;-74
2023/01/11 04:15:46;;;;;;;;;;;;;;;7.12;100.00;100163.53;4976919;28;19936;-74
2023/01/11 04:18:11;;;;;;;;;;;;;;;7.11;100.00;100156.47;4972548;28;19921;-74
2023/01/11 04:20:37;;;;;;;;;;;;;;;7.11;100.00;100151.09;4990144;28;19910;-75
2023/01/11 04:23:07;;;;;;;;;;;;;;;7.08;100.00;100151.38;4974144;28;19939;-74
2023/01/11 04:25:32;;;;;;;;;;;;;;;7.11;100.00;100151.09;4972065;28;19941;-74
2023/01/11 04:27:57;;;;;;;;;;;;;;;7.20;100.00;100155.53;4965469;28;19914;-74
2023/01/11 04:30:23;;;;;;;;;;;;;;;7.07;100.00;100144.31;4971082;28;19910;-75
2023/01/11 04:32:49;;;;;;;;;;;;;;;7.14;100.00;100145.38;4972985;28;19913;-75
2023/01/11 04:35:15;;;;;;;;;;;;;;;7.20;100.00;100169.00;4976082;28;19913;-75
2023/01/11 04:37:40;;;;;;;;;;;;;;;7.20;100.00;100144.75;4975651;28;19910;-75
2023/01/11 04:40:06;;;;;;;;;;;;;;;7.27;100.00;100148.53;4993696;28;19909;-75
2023/01/11 04:42:31;;;;;;;;;;;;;;;7.29;100.00;100143.81;4978569;28;19972;-75
2023/01/11 04:44:56;;;;;;;;;;;;;;;7.22;100.00;100150.81;4973256;28;20315;-75
2023/01/11 04:47:23;;;;;;;;;;;;;;;7.28;100.00;100147.50;4984060;28;19937;-76
2023/01/11 04:49:49;;;;;;;;;;;;;;;7.27;100.00;100145.00;4979852;28;19933;-76
2023/01/11 04:52:15;;;;;;;;;;;;;;;7.33;100.00;100145.22;4975621;28;20288;-76
2023/01/11 04:54:40;;;;;;;;;;;;;;;7.25;100.00;100139.75;4976013;28;19948;-76
2023/01/11 04:57:06;;;;;;;;;;;;;;;7.29;100.00;100149.22;4976042;28;19909;-76
2023/01/11 04:59:31;;;;;;;;;;;;;;;7.34;100.00;100132.59;4975935;28;19913;-76
2023/01/11 05:01:57;;;;;;;;;;;;;;;7.45;100.00;100136.91;4975878;28;19910;-77
2023/01/11 05:04:22;;;;;;;;;;;;;;;7.45;100.00;100153.06;4977497;28;20044;-76
2023/01/11 05:06:47;;;;;;;;;;;;;;;7.43;100.00;100128.09;4975440;28;20339;-76
2023/01/11 05:09:16;;;;;;;;;;;;;;;7.44;100.00;100140.59;4993450;28;19906;-76
2023/01/11 05:11:42;;;;;;;;;;;;;;;7.49;100.00;100138.25;4987229;28;19909;-76
2023/01/11 05:14:07;;;;;;;;;;;;;;;7.52;100.00;100144.19;4984584;28;19913;-75
2023/01/11 05:16:33;;;;;;;;;;;;;;;7.53;100.00;100145.03;4975715;28;19910;-74
2023/01/11 05:19:00;;;;;;;;;;;;;;;7.56;100.00;100155.47;4989391;28;19914;-75
2023/01/11 05:21:27;;;;;;;;;;;;;;;7.56;100.00;100144.72;4975991;28;19960;-77
2023/01/11 05:23:53;;;;;;;;;;;;;;;7.67;100.00;100144.47;4975713;28;19924;-77
2023/01/11 05:26:23;;;;;;;;;;;;;;;7.61;100.00;100142.41;4975332;28;19909;-78
2023/01/11 05:28:49;;;;;;;;;;;;;;;7.69;100.00;100155.91;4980446;28;19937;-78
2023/01/11 05:31:15;;;;;;;;;;;;;;;7.74;100.00;100126.66;4971910;28;19914;-78
2023/01/11 05:33:40;;;;;;;;;;;;;;;7.75;100.00;100149.91;4970728;28;19917;-78
2023/01/11 05:36:06;;;;;;;;;;;;;;;7.79;100.00;100140.50;4973325;28;19920;-78
2023/01/11 05:38:32;;;;;;;;;;;;;;;7.82;100.00;100140.22;4975347;28;19921;-78
2023/01/11 05:41:02;;;;;;;;;;;;;;;7.86;100.00;100141.56;4978985;28;19914;-78
2023/01/11 05:43:28;;;;;;;;;;;;;;;7.84;100.00;100138.19;4974892;28;19983;-78
2023/01/11 05:45:54;;;;;;;;;;;;;;;7.94;100.00;100143.47;4992796;28;19910;-77
2023/01/11 05:48:20;;;;;;;;;;;;;;;7.87;100.00;100137.84;4984399;28;19917;-77
2023/01/11 05:50:49;;;;;;;;;;;;;;;7.89;100.00;100138.56;4970807;28;20005;-76
2023/01/11 05:53:14;;;;;;;;;;;;;;;8.08;100.00;100145.56;4967136;28;19916;-76
2023/01/11 05:55:50;;;;;;;;;;;;;;;8.01;100.00;100149.06;4975552;28;20288;-77
2023/01/11 05:58:15;;;;;;;;;;;;;;;8.02;100.00;100134.56;4975209;28;20004;-76
2023/01/11 06:00:40;;;;;;;;;;;;;;;8.10;100.00;100153.50;4968915;28;19990;-76
2023/01/11 06:03:05;;;;;;;;;;;;;;;8.20;100.00;100148.84;4972273;28;19917;-77
2023/01/11 06:05:33;;;;;;;;;;;;;;;8.26;100.00;100142.78;4975725;28;19910;-76
2023/01/11 06:07:58;;;;;;;;;;;;;;;8.16;100.00;100142.09;4977802;28;19916;-76
2023/01/11 06:10:23;;;;;;;;;;;;;;;8.16;100.00;100147.47;4983012;28;19909;-76
2023/01/11 06:13:25;;;;;;;;;;;;;;;8.18;100.00;100145.47;4994567;28;19916;-76
2023/01/11 06:15:37;;;;;;;;;;;;;;;8.20;100.00;100146.13;4986423;28;19956;-76
2023/01/11 06:18:02;;;;;;;;;;;;;;;8.32;100.00;100147.53;4974284;28;19948;-77
2023/01/11 06:20:27;;;;;;;;;;;;;;;8.25;100.00;100141.09;4984649;28;20380;-77
2023/01/11 06:22:52;;;;;;;;;;;;;;;8.32;100.00;100150.25;4982733;28;20000;-76
2023/01/11 06:25:18;;;;;;;;;;;;;;;8.39;100.00;100145.91;4974906;28;19910;-76
2023/01/11 06:27:43;;;;;;;;;;;;;;;8.47;100.00;100160.44;4974663;28;19910;-77
2023/01/11 06:30:08;;;;;;;;;;;;;;;8.51;100.00;100156.44;4990664;28;19916;-77
2023/01/11 06:32:34;;;;;;;;;;;;;;;8.65;100.00;100150.41;4992321;28;19915;-76
2023/01/11 06:34:59;;;;;;;;;;;;;;;8.55;100.00;100147.84;4969118;28;19933;-76
2023/01/11 06:37:24;;;;;;;;;;;;;;;8.61;100.00;100140.97;4974300;28;19937;-77
2023/01/11 06:39:50;;;;;;;;;;;;;;;8.67;100.00;100145.69;4992748;28;19913;-77
2023/01/11 06:42:15;;;;;;;;;;;;;;;8.60;100.00;100150.03;4982913;28;20380;-76
2023/01/11 06:44:40;;;;;;;;;;;;;;;8.55;100.00;100138.91;4984221;28;19910;-75
2023/01/11 06:47:05;;;;;;;;;;;;;;;8.73;100.00;100153.13;4972256;28;19910;-75
2023/01/11 06:49:31;;;;;;;;;;;;;;;8.59;100.00;100149.19;4974321;28;19916;-76
2023/01/11 06:51:56;;;;;;;;;;;;;;;8.69;100.00;100149.09;4965446;28;19917;-76
2023/01/11 06:54:24;;;;;;;;;;;;;;;8.64;100.00;100146.03;4974854;28;19921;-76
2023/01/11 06:56:49;;;;;;;;;;;;;;;8.73;100.00;100150.41;4978746;28;19910;-76
2023/01/11 06:59:15;;;;;;;;;;;;;;;8.75;100.00;100158.38;4974016;28;20016;-75
2023/01/11 07:01:40;;;;;;;;;;;;;;;8.79;100.00;100167.81;4991766;28;20364;-77
2023/01/11 07:04:05;;;;;;;;;;;;;;;8.74;100.00;100171.03;4966570;28;19910;-76
2023/01/11 07:06:33;;;;;;;;;;;;;;;8.78;100.00;100166.97;4973935;28;19949;-75
2023/01/11 07:08:58;;;;;;;;;;;;;;;8.75;100.00;100164.63;4958129;28;19910;-76
2023/01/11 07:11:23;;;;;;;;;;;;;;;8.91;100.00;100172.75;4970524;28;19910;-75
2023/01/11 07:13:48;;;;;;;;;;;;;;;8.77;100.00;100178.78;4989409;28;19909;-76
2023/01/11 07:16:16;;;;;;;;;;;;;;;8.76;100.00;100174.41;4969135;28;19909;-76
2023/01/11 07:18:41;;;;;;;;;;;;;;;8.89;100.00;100182.88;4978235;28;19965;-76
2023/01/11 07:21:06;;;;;;;;;;;;;;;8.84;100.00;100187.91;4962110;28;19910;-76
2023/01/11 07:23:32;;;;;;;;;;;;;;;8.88;100.00;100181.19;4962412;23;19922;-72
2023/01/11 07:25:57;;;;;;;;;;;;;;;8.93;100.00;100184.25;4952392;28;19949;-72
2023/01/11 07:28:22;;;;;;;;;;;;;;;9.00;100.00;100195.25;4943914;28;20021;-72
2023/01/11 07:30:48;;;;;;;;;;;;;;;8.95;100.00;100195.72;4953884;28;19914;-72
2023/01/11 07:33:14;;;;;;;;;;;;;;;9.03;100.00;100188.66;4952217;28;19914;-71
2023/01/11 07:35:40;;;;;;;;;;;;;;;9.12;100.00;100198.44;4954241;28;19921;-71
2023/01/11 07:38:08;;;;;;;;;;;;;;;9.20;100.00;100184.97;4961915;28;20284;-71
2023/01/11 07:40:35;;;;;;;;;;;;;;;9.23;100.00;100188.19;4965387;28;19914;-71
2023/01/11 07:43:17;;;;;;;;;;;;;;;9.11;100.00;100199.47;4945913;28;20066;-71
2023/01/11 07:45:44;;;;;;;;;;;;;;;9.25;100.00;100201.50;4963559;28;19918;-71
2023/01/11 07:48:10;;;;;;;;;;;;;;;9.27;100.00;100201.38;4953744;28;19910;-71
2023/01/11 07:50:39;;;;;;;;;;;;;;;9.33;100.00;100193.44;4948344;29;19910;-72
2023/01/11 07:53:05;;;;;;;;;;;;;;;9.50;100.00;100203.22;4946476;28;19918;-71
2023/01/11 07:55:30;;;;;;;;;;;;;;;9.41;100.00;100204.25;4949172;29;19910;-71
2023/01/11 07:57:56;;;;;;;;;;;;;;;9.40;100.00;100191.75;4938180;28;19969;-71
2023/01/11 08:00:22;;;;;;;;;;;;;;;9.46;100.00;100201.91;4949539;28;20001;-71
2023/01/11 08:02:51;;;;;;;;;;;;;;;9.52;100.00;100212.03;4932268;28;19918;-73
2023/01/11 08:05:18;;;;;;;;;;;;;;;9.50;100.00;100208.63;4943457;28;19941;-74
2023/01/11 08:08:32;;;;;;;8.43;6.03;;;;;;;9.51;100.00;100215.72;5172552;27;20218;-72
2023/01/11 08:16:26;;;;;;;9.63;6.32;;;;;;;9.46;100.00;100218.09;5129937;27;20031;-73
2023/01/11 08:18:54;;;;;;;7.63;5.90;;;;;;;9.57;100.00;100230.44;5121079;27;20598;-72
2023/01/11 08:21:20;;;;;;;10.32;5.57;;;;;;;9.60;100.00;100229.28;5126615;27;20463;-72
2023/01/11 08:23:46;;;;;;;9.13;6.25;;;;;;;9.55;100.00;100245.13;5131266;27;20038;-72
2023/01/11 08:26:15;;;;;;;7.30;6.13;;;;;;;9.55;100.00;100242.44;5136913;27;20027;-73
2023/01/11 08:28:42;;;;;;;12.00;6.80;;;;;;;9.51;100.00;100242.75;5124275;27;20031;-72
2023/01/11 08:31:08;;;;;;;12.32;7.10;;;;;;;9.46;100.00;100255.94;5127928;27;20020;-72
2023/01/11 08:33:33;;;;;;;9.10;5.80;;;;;;;9.43;100.00;100261.66;5116790;27;20034;-72
2023/01/11 08:36:04;;;;;;;6.65;4.90;;;;;;;9.51;100.00;100248.16;5116053;27;20065;-72
2023/01/11 08:38:30;;;;;;;5.80;5.20;;;;;;;9.51;100.00;100240.06;5133552;27;20027;-72
2023/01/11 08:40:55;;;;;;;6.97;5.43;;;;;;;9.67;100.00;100251.91;5128542;27;20031;-72
2023/01/11 08:43:21;;;;;;;10.68;5.30;;;;;;;9.72;100.00;100260.38;5120930;27;20042;-71
2023/01/11 08:45:48;;;;;;;8.68;5.32;;;;;;;9.78;100.00;100252.44;5129160;27;20053;-71
2023/01/11 08:48:14;;;;;;;8.40;5.55;;;;;;;9.83;100.00;100251.91;5135772;27;20797;-71
2023/01/11 08:50:40;;;;;;;10.55;4.57;;;;;;;9.79;100.00;100255.97;5129461;27;20024;-71
2023/01/11 08:53:05;;;;;;;5.60;5.05;;;;;;;9.74;100.00;100252.94;5131529;27;20015;-71
2023/01/11 08:55:31;;;;;;;7.35;5.53;;;;;;;9.74;100.00;100258.34;5119463;27;20120;-70
2023/01/11 08:57:56;;;;;;;7.60;6.00;;;;;;;9.69;100.00;100249.88;5137256;27;20038;-70
2023/01/11 09:00:22;;;;;;;7.40;6.10;;;;;;;9.85;100.00;100249.06;5121248;27;20019;-70
2023/01/11 09:02:47;;;;;;;7.00;5.85;;;;;;;10.00;100.00;100247.34;5123192;27;20031;-69
2023/01/11 09:05:12;;;;;;;7.80;6.22;;;;;;;9.90;100.00;100252.91;5122928;27;20479;-72
2023/01/11 09:07:38;;;;;;;13.30;6.03;;;;;;;9.81;100.00;100280.13;5135735;27;20027;-72
2023/01/11 09:10:04;;;;;;;15.70;5.82;;;;;;;9.87;100.00;100283.00;5128217;27;20024;-72
2023/01/11 09:12:31;;;;;;;7.90;4.88;;;;;;;9.69;100.00;100288.56;5128189;27;20096;-72
2023/01/11 09:14:57;;;;;;;10.30;5.32;;;;;;;9.74;100.00;100288.06;5134002;27;20023;-69
2023/01/11 09:17:22;;;;;;;8.15;5.13;;;;;;;9.81;100.00;100294.50;5127095;27;20073;-70
2023/01/11 09:19:47;;;;;;;9.63;4.72;;;;;;;9.85;100.00;100308.53;5107308;27;20023;-71
2023/01/11 09:22:13;;;;;;;11.85;5.78;;;;;;;9.68;100.00;100313.06;5111509;27;20088;-71
2023/01/11 09:24:38;;;;;;;7.50;5.32;;;;;;;9.78;100.00;100302.97;5124817;27;20027;-71
2023/01/11 09:27:04;;;;;;;10.35;5.63;;;;;;;9.87;100.00;100301.94;5122515;27;20028;-71
2023/01/11 09:29:29;;;;;;;12.68;4.35;;;;;;;10.11;100.00;100311.09;5116140;27;20024;-72
2023/01/11 09:31:54;;;;;;;11.20;5.35;;;;;;;10.05;100.00;100299.94;5113536;27;20023;-72
2023/01/11 09:34:20;;;;;;;12.45;3.40;;;;;;;9.76;100.00;100299.56;5108414;27;20035;-72
2023/01/11 09:36:47;;;;;;;13.48;4.60;;;;;;;9.80;100.00;100284.69;5101383;27;20020;-72
2023/01/11 09:39:17;;;;;;;9.77;3.65;;;;;;;10.03;100.00;100285.69;5103341;27;20030;-72
2023/01/11 09:42:04;;;;;;;14.13;4.03;;;;;;;10.12;100.00;100294.69;5112479;27;20019;-72
2023/01/11 09:44:34;;;;;;;18.90;3.13;;;;;;;9.92;100.00;100287.91;5111957;27;20080;-72
2023/01/11 09:47:13;;;;;;;12.80;2.83;;;;;;;9.94;100.00;100281.31;5105352;27;20103;-72
2023/01/11 09:49:43;;;;;;;15.02;3.45;;;;;;;9.85;100.00;100282.34;5115331;27;20020;-72
2023/01/11 09:52:23;;;;;;;10.63;2.90;;;;;;;10.09;100.00;100288.75;5114686;27;20026;-71
2023/01/11 09:54:48;;;;;;;14.30;3.72;;;;;;;10.10;100.00;100290.44;5110179;27;20055;-71
2023/01/11 09:57:32;;;;;;;10.90;2.72;;;;;;;9.95;100.00;100288.41;5122348;27;20057;-71
2023/01/11 10:00:36;;;;;;;13.85;3.42;;;;;;;10.01;100.00;100298.56;5116168;27;20570;-72
2023/01/11 10:03:22;;;;;;;10.43;3.00;;;;;;;9.95;100.00;100304.63;5088864;27;20035;-71
2023/01/11 10:06:20;;;;;;;19.38;3.90;;;;;;;9.85;100.00;100295.88;5104719;27;20035;-71
2023/01/11 10:09:16;;;;;;;13.15;3.85;;;;;;;9.81;100.00;100302.59;5106015;27;20020;-71
2023/01/11 10:12:11;;;;;;;11.82;4.47;;;;;;;9.97;100.00;100313.41;5110214;27;20031;-71
2023/01/11 10:14:56;;;;;;;14.52;4.35;;;;;;;9.79;100.00;100299.22;5112150;27;20054;-70
2023/01/11 10:17:43;;;;;;;9.45;3.70;;;;;;;9.86;100.00;100305.66;5104782;27;20023;-70
2023/01/11 10:20:11;;;;;;;9.18;2.92;;;;;;;9.75;100.00;100297.88;5107829;27;20027;-70
2023/01/11 10:22:43;;;;;;;12.05;3.78;;;;;;;9.77;100.00;100306.66;5107075;27;20089;-70
2023/01/11 10:25:23;;;;;;;18.85;3.40;;;;;;;9.99;100.00;100314.13;5108601;27;20050;-70
2023/01/11 10:28:00;;;;;;;18.88;3.30;;;;;;;9.84;100.00;100318.47;5115909;27;20027;-70
2023/01/11 10:33:45;;;;;;;15.52;3.78;;;;;;;9.87;100.00;100333.53;5104833;27;20027;-72
2023/01/11 10:37:05;;;;;;;21.60;3.92;;;;;;;9.94;100.00;100329.16;5108872;27;20019;-72
2023/01/11 10:42:20;;;;;;;14.32;3.80;;;;;;;9.79;100.00;100337.09;5117789;27;20032;-70
2023/01/11 10:45:14;;;;;;;12.88;2.92;;;;;;;9.97;100.00;100340.47;5106538;27;20023;-71
2023/01/11 10:48:10;;;;;;;15.15;2.70;;;;;;;9.91;100.00;100333.06;5103531;27;20028;-70
2023/01/11 10:50:45;;;;;;;12.95;3.25;;;;;;;9.81;100.00;100331.50;5099982;27;20122;-70
2023/01/11 10:53:15;;;;;;;15.63;3.08;;;;;;;9.79;100.00;100326.28;5112450;27;20034;-70
2023/01/11 10:56:00;;;;;;;13.40;2.67;;;;;;;9.71;100.00;100318.13;5117801;27;20035;-71
2023/01/11 10:58:45;;;;;;;12.25;3.03;;;;;;;9.89;100.00;100316.13;5099001;27;20031;-71
2023/01/11 11:01:49;;;;;;;13.82;3.03;;;;;;;9.95;100.00;100315.47;5104978;28;20039;-73
2023/01/11 11:04:30;;;;;;;13.40;3.00;;;;;;;9.89;100.00;100320.69;5071726;27;20039;-73
2023/01/11 11:07:10;;;;;;;13.23;3.33;;;;;;;9.91;100.00;100319.53;5106951;27;20038;-73
2023/01/11 11:09:49;;;;;;;14.10;3.17;;;;;;;9.96;100.00;100322.56;5101159;27;20019;-71
2023/01/11 11:12:23;;;;;;;16.92;3.47;;;;;;;10.07;100.00;100324.94;5106951;27;20050;-71
2023/01/11 11:14:59;;;;;;;11.93;2.60;;;;;;;10.07;100.00;100318.69;5105850;27;20122;-71
2023/01/11 11:17:31;;;;;;;18.08;3.15;;;;;;;10.23;100.00;100315.16;5096499;27;20083;-71
2023/01/11 11:19:57;;;;;;;24.13;4.10;;;;;;;10.19;100.00;100311.09;5109808;27;20031;-71
2023/01/11 11:22:22;;;;;;;16.60;3.00;;;;;;;10.17;100.00;100313.09;5106300;27;20050;-71
2023/01/11 11:24:53;;;;;;;17.77;4.10;;;;;;;10.30;100.00;100316.16;5104823;27;20539;-71
2023/01/11 11:27:57;;;;;;;14.25;3.38;;;;;;;10.16;100.00;100319.53;5138231;27;20043;-71
2023/01/11 11:30:40;;;;;;;13.18;3.22;;;;;;;9.84;100.00;100313.06;5094380;27;20390;-71
2023/01/11 11:33:27;;;;;;;18.10;4.57;;;;;;;10.05;100.00;100318.84;5107069;27;20020;-70
2023/01/11 11:36:03;;;;;;;14.40;3.35;;;;;;;9.98;100.00;100320.53;5110476;27;20023;-71
2023/01/11 11:38:40;;;;;;;18.98;3.85;;;;;;;10.02;100.00;100305.66;5107773;27;20042;-72
2023/01/11 11:41:10;;;;;;;17.27;3.13;;;;;;;10.20;100.00;100318.19;5106792;27;20023;-71
2023/01/11 11:43:38;;;;;;;14.75;3.10;;;;;;;9.97;100.00;100326.94;5110051;27;20091;-71
2023/01/11 11:46:26;;;;;;;20.05;3.83;;;;;;;9.98;100.00;100334.06;5102323;27;20557;-71
2023/01/11 11:49:11;;;;;;;22.30;4.13;;;;;;;9.97;100.00;100329.66;5110835;27;20077;-71
2023/01/11 11:51:37;;;;;;;14.10;3.58;;;;;;;10.14;100.00;100332.38;5112336;27;20551;-71
2023/01/11 11:54:03;;;;;;;17.48;3.00;;;;;;;10.16;100.00;100333.03;5102999;27;20180;-73
2023/01/11 11:56:31;;;;;;;9.02;3.40;;;;;;;9.99;100.00;100322.22;5111378;27;20114;-74
2023/01/11 11:58:58;;;;;;;17.25;4.10;;;;;;;10.18;100.00;100320.22;5106704;28;20018;-73
2023/01/11 12:01:36;;;;;;;22.05;3.67;;;;;;;10.09;100.00;100326.63;5112510;27;20117;-73
2023/01/11 12:04:15;;;;;;;19.95;4.03;;;;;;;9.98;100.00;100319.69;5104427;28;20022;-73
2023/01/11 12:06:41;;;;;;;25.98;3.72;;;;;;;10.05;100.00;100326.97;5120390;28;20445;-73
2023/01/11 12:09:28;;;;;;;27.73;3.95;;;;;;;10.03;100.00;100339.78;5118335;28;20023;-73
2023/01/11 12:11:54;;;;;;;20.35;3.35;;;;;;;9.93;100.00;100333.72;5107624;28;20019;-73
2023/01/11 12:14:27;;;;;;;18.80;3.90;;;;;;;9.83;100.00;100327.59;5111147;28;20486;-72
2023/01/11 12:16:52;;;;;;;17.73;3.88;;;;;;;9.96;100.00;100327.97;5115561;28;20114;-73
2023/01/11 12:19:35;;;;;;;23.17;3.72;;;;;;;9.98;100.00;100325.13;5110454;28;20111;-73
2023/01/11 12:22:26;;;;;;;17.63;3.90;;;;;;;9.96;100.00;100333.38;5109635;28;20031;-73
2023/01/11 12:25:07;;;;;;;23.15;4.88;;;;;;;10.00;100.00;100334.75;5107261;28;20035;-73
2023/01/11 12:27:43;;;;;;;18.27;4.28;;;;;;;10.07;100.00;100319.53;5107343;28;20027;-73
2023/01/11 12:30:22;;;;;;;25.02;4.22;;;;;;;10.02;100.00;100321.88;5107218;28;20102;-73
2023/01/11 12:33:11;;;;;;;14.52;4.10;;;;;;;9.92;100.00;100337.44;5117351;28;20019;-72
2023/01/11 12:35:58;;;;;;;16.05;3.60;;;;;;;9.80;100.00;100333.38;5109589;28;20034;-72
2023/01/11 12:38:39;;;;;;;22.80;4.72;;;;;;;9.86;100.00;100346.22;5097168;28;20043;-72
2023/01/11 12:41:46;;;;;;;18.42;3.90;;;;;;;9.81;100.00;100340.47;5099409;28;20019;-72
2023/01/11 12:44:42;;;;;;;23.70;4.63;;;;;;;9.93;100.00;100333.72;5105047;28;20023;-72
2023/01/11 12:47:29;;;;;;;15.77;3.53;;;;;;;9.72;100.00;100342.31;5101862;28;20140;-71
2023/01/11 12:50:11;;;;;;;24.67;3.85;;;;;;;9.84;100.00;100345.50;5111231;28;20045;-71